• Join FlightAware (Why Join?)
  • Login
  • US Flag 
10:07AM EDT


 

Airport Tracker/Info


-or-


 

Live Flight TrackerFlight Track Log ✈ IGO516 ✈ 06-May-2013 ✈ VOCI / COK - VIDP / DEL

Flight Track Log - Related Links

Times and Time Zones

All times are in EDT time to prevent confusion due to time zone crossing. See the IGO516 flight status page for this flight to view local times or setup timezone preferences in your user account.

Time Position Orientation Groundspeed Altitude Reporting Facility
EDT Latitude Longitude Course Direction KTS MPH feet Rate Location/Type
09:42PM 10.1820 76.3570 23° Northeast 222 255 2,200  Level FlightAware
09:42PM 10.2060 76.3710 30° Northeast 259 298 2,800 2,160 Climbing FlightAware
09:43PM 10.2390 76.3880 27° Northeast 271 312 4,200 3,000 Climbing FlightAware
09:43PM 10.2510 76.3930 22° Northeast 271 312 4,800 3,300 Climbing FlightAware
09:43PM 10.2840 76.4090 26° Northeast 271 312 6,400 3,060 Climbing FlightAware
09:44PM 10.3190 76.4260 26° Northeast 275 316 7,900 2,940 Climbing FlightAware
09:44PM 10.3470 76.4390 25° Northeast 274 315 9,100 2,520 Climbing FlightAware
09:45PM 10.4000 76.4640 25° Northeast 286 329 10,900 1,620 Climbing FlightAware
09:46PM 10.4530 76.4890 25° Northeast 331 381 11,400 1,320 Climbing FlightAware
09:46PM 10.5110 76.5160 25° Northeast 345 397 12,700 2,040 Climbing FlightAware
09:47PM 10.5780 76.5480 25° Northeast 352 405 14,300 1,800 Climbing FlightAware
09:48PM 10.6380 76.5760 25° Northeast 369 425 15,300 1,680 Climbing FlightAware
09:49PM 10.7080 76.6090 25° Northeast 377 434 16,700 1,860 Climbing FlightAware
09:49PM 10.7740 76.6400 25° Northeast 381 438 18,000 1,800 Climbing FlightAware
09:50PM 10.8360 76.6690 25° Northeast 387 445 19,100 1,680 Climbing FlightAware
09:51PM 10.9120 76.7050 25° Northeast 391 450 20,400 1,440 Climbing FlightAware
09:51PM 10.9810 76.7370 24° Northeast 401 461 21,200 960 Climbing FlightAware
09:52PM 11.0780 76.7820 24° Northeast 406 467 22,000 480 Climbing FlightAware
09:53PM 11.1360 76.8090 25° Northeast 406 467 22,000  Level FlightAware
09:54PM 11.1940 76.8350 24° Northeast 406 467 22,000  Level FlightAware
09:54PM 11.2530 76.8620 24° Northeast 406 467 22,000  Level FlightAware
09:55PM 11.3260 76.8950 24° Northeast 406 467 22,000 2,400 Level FlightAware
09:56PM 11.4580 76.9630 27° Northeast 429 494 26,000 2,640 Climbing FlightAware
09:57PM 11.5200 76.9920 25° Northeast 429 494 26,000  Level FlightAware
09:57PM 11.5960 77.0280 25° Northeast 429 494 26,000  Level FlightAware
09:58PM 11.6570 77.0580 26° Northeast 429 494 26,000  Level FlightAware
09:59PM 11.7180 77.0870 25° Northeast 429 494 26,000  Level FlightAware
09:59PM 11.7800 77.1160 25° Northeast 429 494 26,000 2,400 Level FlightAware
10:01PM 12.0280 77.1460 North 459 528 30,700 2,520 Climbing FlightAware
10:01PM 12.0930 77.1660 17° North 459 528 30,700  Level FlightAware
10:02PM 12.1800 77.1930 17° North 459 528 30,700  Level FlightAware
10:03PM 12.2490 77.2150 17° North 459 528 30,700  Level FlightAware
10:03PM 12.3180 77.2360 17° North 459 528 30,700  Level FlightAware
10:04PM 12.3870 77.2580 17° North 459 528 30,700 300 Level FlightAware
10:07PM 12.6468 77.2557 360° North  Level Estimated
10:08PM 12.7557 77.2548 360° North  Level Estimated
10:09PM 12.8647 77.2538 360° North  Level Estimated
10:10PM 12.9737 77.2529 360° North  Level Estimated
10:11PM 13.0827 77.2519 360° North  Level Estimated
10:12PM 13.1917 77.2510 360° North  Level Estimated
10:13PM 13.3006 77.2500 360° North  Level Estimated
10:14PM 13.4096 77.2490 360° North  Level Estimated
10:15PM 13.5186 77.2481 360° North  Level Estimated
10:16PM 13.6276 77.2471 360° North  Level Estimated
10:17PM 13.7366 77.2462 360° North  Level Estimated
10:18PM 13.8455 77.2452 360° North  Level Estimated
10:19PM 13.9545 77.2442 360° North  Level Estimated
10:20PM 14.0635 77.2433 360° North  Level Estimated
10:21PM 14.1725 77.2423 360° North  Level Estimated
10:21PM 14.3990 77.7760 360° North 450 518 36,000  Level FlightAware
10:21PM 14.4910 77.7720 358° North 450 518 36,000  Level FlightAware
10:22PM 14.5650 77.7680 357° North 451 519 36,000  Level FlightAware
10:23PM 14.6600 77.7640 358° North 450 518 36,000  Level FlightAware
10:23PM 14.7430 77.7590 357° North 450 518 36,000  Level FlightAware
10:24PM 14.8430 77.7550 358° North 451 519 36,000  Level FlightAware
10:25PM 14.9410 77.7510 358° North 453 521 36,000  Level FlightAware
10:25PM 15.0050 77.7470 357° North 453 521 36,000  Level FlightAware
10:26PM 15.1130 77.7420 357° North 453 521 36,000  Level FlightAware
10:27PM 15.2110 77.7380 358° North 452 520 36,000  Level FlightAware
10:28PM 15.3090 77.7340 358° North 452 520 36,000  Level FlightAware
10:28PM 15.3770 77.7300 357° North 452 520 36,000  Level FlightAware
10:30PM 15.5190 77.7240 358° North 451 519 36,000  Level FlightAware
10:30PM 15.6030 77.7200 357° North 452 520 36,000  Level FlightAware
10:31PM 15.6990 77.7160 358° North 454 522 36,000  Level FlightAware
10:32PM 15.7800 77.7120 357° North 455 524 36,000  Level FlightAware
10:32PM 15.8730 77.7070 357° North 454 522 36,000  Level FlightAware
10:33PM 15.9890 77.7020 358° North 453 521 36,000  Level FlightAware
10:34PM 16.1030 77.6970 358° North 452 520 36,000  Level FlightAware
10:35PM 16.2020 77.6920 357° North 451 519 36,000  Level FlightAware
10:36PM 16.2850 77.6880 357° North 450 518 36,000  Level FlightAware
10:36PM 16.3760 77.6840 358° North 450 518 36,000  Level FlightAware
10:37PM 16.4660 77.6800 358° North 450 518 36,000  Level FlightAware
10:38PM 16.5480 77.6760 357° North 450 518 36,000  Level FlightAware
10:38PM 16.6360 77.6720 358° North 450 518 36,000  Level FlightAware
10:39PM 16.7180 77.6680 357° North 450 518 36,000  Level FlightAware
10:40PM 16.8190 77.6630 357° North 449 517 36,000  Level FlightAware
10:40PM 16.8990 77.6590 357° North 449 517 36,000  Level FlightAware
10:41PM 16.9890 77.6550 358° North 449 517 36,000  Level FlightAware
10:42PM 17.0750 77.6510 357° North 449 517 36,000  Level FlightAware
10:43PM 17.1620 77.6470 357° North 449 517 36,000  Level FlightAware
10:43PM 17.2400 77.6430 357° North 448 516 36,000  Level FlightAware
10:44PM 17.3350 77.6390 358° North 447 514 36,000  Level FlightAware
10:45PM 17.4230 77.6350 358° North 446 513 36,000  Level FlightAware
10:45PM 17.5140 77.6300 357° North 446 513 36,000  Level FlightAware
10:46PM 17.5960 77.6260 357° North 445 512 36,000  Level FlightAware
10:47PM 17.6780 77.6220 357° North 444 511 36,000  Level FlightAware
10:47PM 17.7760 77.6180 358° North 443 510 36,000  Level FlightAware
10:48PM 17.8540 77.6140 357° North 440 506 36,000  Level FlightAware
10:49PM 17.9400 77.6100 357° North 438 504 36,000  Level FlightAware
10:50PM 18.0540 77.6040 357° North 437 503 36,000  Level FlightAware
10:50PM 18.1370 77.6010 358° North 436 502 36,000  Level FlightAware
10:51PM 18.2230 77.5960 357° North 437 503 36,000  Level FlightAware
10:52PM 18.3060 77.5920 357° North 436 502 36,000  Level FlightAware
10:53PM 18.4490 77.5860 358° North 433 498 36,000  Level FlightAware
10:54PM 18.5260 77.5820 357° North 432 497 36,000  Level FlightAware
10:54PM 18.6240 77.5770 357° North 432 497 36,000  Level FlightAware
10:55PM 18.7010 77.5730 357° North 432 497 36,000  Level FlightAware
10:56PM 18.7870 77.5690 357° North 432 497 36,000  Level FlightAware
10:56PM 18.8640 77.5660 358° North 433 498 36,000  Level FlightAware
10:57PM 18.9580 77.5610 357° North 433 498 36,000  Level FlightAware
10:58PM 19.0280 77.5580 358° North 434 499 36,000  Level FlightAware
10:59PM 19.1230 77.5530 357° North 434 499 36,000 60 Level FlightAware
10:59PM 19.1940 77.5500 358° North 433 498 36,100  Climbing FlightAware
11:00PM 19.2660 77.5460 357° North 432 497 36,000 -120 Descending FlightAware
11:01PM 19.3760 77.5410 358° North 432 497 36,000  Level FlightAware
11:02PM 19.4750 77.5360 357° North 432 497 36,000  Level FlightAware
11:02PM 19.5690 77.5320 358° North 432 497 36,000  Level FlightAware
11:03PM 19.6740 77.5260 357° North 432 497 36,000  Level FlightAware
11:04PM 19.7480 77.5230 358° North 432 497 36,000  Level FlightAware
11:05PM 19.8480 77.5180 357° North 431 496 36,000  Level FlightAware
11:05PM 19.9430 77.5130 357° North 430 495 36,000  Level FlightAware
11:06PM 20.0100 77.5090 357° North 430 495 36,000  Level FlightAware
11:07PM 20.0780 77.5060 358° North 430 495 36,000  Level FlightAware
11:08PM 20.1850 77.5010 357° North 427 491 36,000  Level FlightAware
11:08PM 20.2520 77.4970 357° North 427 491 36,000  Level FlightAware
11:09PM 20.3410 77.4930 358° North 429 494 36,000  Level FlightAware
11:10PM 20.4520 77.4880 358° North 429 494 36,000  Level FlightAware
11:11PM 20.5360 77.4830 357° North 429 494 36,000  Level FlightAware
11:11PM 20.6040 77.4790 357° North 429 494 36,000  Level FlightAware
11:12PM 20.7400 77.4740 358° North 429 494 36,000  Level FlightAware
11:13PM 20.8070 77.4700 357° North 429 494 36,000  Level FlightAware
11:14PM 20.8750 77.4660 357° North 429 494 36,000  Level FlightAware
11:14PM 20.9420 77.4620 357° North 429 494 36,000  Level FlightAware
11:15PM 21.0260 77.4580 357° North 429 494 36,000  Level FlightAware
11:16PM 21.0940 77.4540 357° North 429 494 36,000  Level FlightAware
11:16PM 21.1610 77.4500 357° North 429 494 36,000  Level FlightAware
11:17PM 21.2290 77.4460 357° North 429 494 36,000  Level FlightAware
11:18PM 21.2960 77.4420 357° North 429 494 36,000  Level FlightAware
11:19PM 21.3800 77.4380 357° North 429 494 36,000  Level FlightAware
11:19PM 21.4480 77.4340 357° North 429 494 36,000  Level FlightAware
11:20PM 21.5150 77.4300 357° North 429 494 36,000  Level FlightAware
11:21PM 21.5820 77.4260 357° North 429 494 36,000  Level FlightAware
11:21PM 21.6500 77.4220 357° North 429 494 36,000  Level FlightAware
11:24PM 21.9005 77.4110 358° North  Level Estimated
11:25PM 22.0094 77.4063 358° North  Level Estimated
11:25PM 22.2430 77.3990 358° North 431 496 36,000  Level FlightAware
11:25PM 22.3370 77.3940 357° North 431 496 36,000  Level FlightAware
11:26PM 22.4300 77.3900 358° North 432 497 36,000  Level FlightAware
11:27PM 22.5140 77.3850 357° North 432 497 36,000  Level FlightAware
11:28PM 22.6290 77.3800 358° North 433 498 36,000  Level FlightAware
11:28PM 22.7020 77.3760 357° North 433 498 36,000  Level FlightAware
11:29PM 22.7870 77.3710 357° North 433 498 36,000  Level FlightAware
11:30PM 22.8550 77.3670 357° North 433 498 36,000  Level FlightAware
11:31PM 22.9230 77.3630 357° North 433 498 36,000  Level FlightAware
11:31PM 22.9910 77.3590 357° North 433 498 36,000  Level FlightAware
11:32PM 23.1650 77.3520 358° North 428 493 36,000  Level FlightAware
11:33PM 23.2530 77.3480 358° North 428 493 36,000  Level FlightAware
11:34PM 23.3320 77.3440 357° North 428 493 36,000  Level FlightAware
11:34PM 23.4100 77.3400 357° North 428 493 36,000  Level FlightAware
11:35PM 23.4990 77.3350 357° North 427 491 36,000  Level FlightAware
11:36PM 23.5810 77.3310 357° North 427 491 36,000  Level FlightAware
11:37PM 23.6710 77.3260 357° North 427 491 36,000  Level FlightAware
11:37PM 23.7490 77.3220 357° North 426 490 36,000  Level FlightAware
11:38PM 23.8260 77.3180 357° North 425 489 36,000  Level FlightAware
11:39PM 23.9150 77.3140 358° North 424 488 36,000  Level FlightAware
11:39PM 23.9970 77.3090 357° North 424 488 36,000  Level FlightAware
11:40PM 24.0840 77.3050 358° North 424 488 36,000  Level FlightAware
11:41PM 24.1630 77.3010 357° North 425 489 36,000  Level FlightAware
11:41PM 24.2440 77.2970 357° North 425 489 36,000  Level FlightAware
11:42PM 24.3330 77.2920 357° North 426 490 36,000  Level FlightAware
11:43PM 24.4080 77.2880 357° North 426 490 36,000  Level FlightAware
11:43PM 24.4910 77.2840 357° North 427 491 36,000  Level FlightAware
11:44PM 24.5780 77.2790 357° North 429 494 36,000  Level FlightAware
11:45PM 24.6580 77.2750 357° North 430 495 36,000  Level FlightAware
11:46PM 24.7380 77.2710 357° North 430 495 36,000  Level FlightAware
11:46PM 24.8290 77.2660 357° North 430 495 36,000  Level FlightAware
11:47PM 24.9110 77.2620 357° North 429 494 36,000  Level FlightAware
11:48PM 24.9980 77.2570 357° North 428 493 36,000  Level FlightAware
11:48PM 25.0760 77.2540 358° North 428 493 36,000  Level FlightAware
11:49PM 25.1660 77.2510 358° North 424 488 36,000  Level FlightAware
11:50PM 25.2460 77.2480 358° North 422 486 36,000  Level FlightAware
11:51PM 25.3310 77.2450 358° North 419 482 36,000  Level FlightAware
11:51PM 25.4090 77.2420 358° North 419 482 36,000  Level FlightAware
11:52PM 25.4860 77.2390 358° North 419 482 36,000  Level FlightAware
11:53PM 25.5760 77.2360 358° North 418 481 36,000  Level FlightAware
11:53PM 25.6550 77.2330 358° North 417 480 36,000  Level FlightAware
11:54PM 25.7310 77.2310 359° North 416 479 36,000  Level FlightAware
11:55PM 25.8150 77.2270 358° North 414 476 36,000  Level FlightAware
11:55PM 25.8930 77.2250 359° North 413 475 36,000  Level FlightAware
11:56PM 25.9690 77.2220 358° North 412 474 36,000  Level FlightAware
11:57PM 26.0560 77.2190 358° North 411 473 36,000  Level FlightAware
11:57PM 26.1320 77.2160 358° North 411 473 36,000  Level FlightAware
11:58PM 26.2170 77.2120 358° North 409 471 36,000  Level FlightAware
11:59PM 26.2920 77.2080 357° North 408 470 36,000  Level FlightAware
12:00AM 26.3670 77.2040 357° North 408 470 36,000  Level FlightAware
12:00AM 26.4560 77.1990 357° North 419 482 36,000  Level FlightAware
12:01AM 26.5360 77.1950 357° North 427 491 36,000  Level FlightAware
12:02AM 26.6210 77.1910 358° North 423 487 36,000  Level FlightAware
12:02AM 26.6970 77.1870 357° North 420 483 36,000  Level FlightAware
12:03AM 26.7780 77.1830 357° North 423 487 36,000 -180 Level FlightAware
12:04AM 26.8580 77.1790 357° North 423 487 35,800 -660 Descending FlightAware
12:04AM 26.9480 77.1740 357° North 433 498 35,100 -1,200 Descending FlightAware
12:05AM 27.0280 77.1700 357° North 441 507 34,100 -1,500 Descending FlightAware
12:06AM 27.1180 77.1650 357° North 438 504 33,000 -1,740 Descending FlightAware
12:07AM 27.2010 77.1610 358° North 441 507 31,700 -1,980 Descending FlightAware
12:07AM 27.2960 77.1560 357° North 440 506 30,200 -1,980 Descending FlightAware
12:08AM 27.3730 77.1520 357° North 435 501 28,900 -1,980 Descending FlightAware
12:09AM 27.4530 77.1470 357° North 427 491 27,600 -2,160 Descending FlightAware
12:09AM 27.5520 77.1420 357° North 423 487 25,700 -2,340 Descending FlightAware
12:10AM 27.6240 77.1390 358° North 435 501 24,300 -2,400 Descending FlightAware
12:10AM 27.6630 77.1430 North 442 509 23,500 -2,220 Descending FlightAware
12:11AM 27.7390 77.1660 15° North 432 497 22,100 -2,160 Descending FlightAware
12:12AM 27.8260 77.1940 16° North 417 480 20,500 -2,220 Descending FlightAware
12:12AM 27.8990 77.2170 16° North 408 470 19,000 -2,100 Descending FlightAware
12:13AM 27.9720 77.2400 16° North 404 465 17,700 -1,980 Descending FlightAware
12:14AM 28.0570 77.2660 15° North 407 468 16,200 -1,800 Descending FlightAware
12:15AM 28.1310 77.2770 North 383 441 15,200 -1,200 Descending FlightAware
12:15AM 28.2050 77.2880 North 355 409 14,500 -1,020 Descending FlightAware
12:16AM 28.2680 77.2970 North 335 386 13,800 -900 Descending FlightAware
12:17AM 28.3280 77.3060 North 313 360 13,300 -720 Descending FlightAware
12:17AM 28.3890 77.2970 353° North 270 311 12,800 -780 Descending FlightAware
12:18AM 28.3970 77.2870 312° West 262 302 12,600 -1,200 Descending FlightAware
12:18AM 28.4040 77.2690 294° West 257 296 12,300 -1,140 Descending FlightAware
12:19AM 28.4170 77.2100 284° West 246 283 11,500 -960 Descending FlightAware
12:19AM 28.4280 77.1610 284° West 240 276 11,000 -540 Descending FlightAware
12:20AM 28.4390 77.1130 285° West 234 269 10,800 -720 Descending FlightAware
12:21AM 28.4500 77.0610 284° West 230 265 10,000 -1,080 Descending FlightAware
12:21AM 28.4560 77.0300 282° West 228 262 9,600 -1,020 Descending FlightAware
12:22AM 28.4630 76.9970 284° West 222 255 9,100 -1,080 Descending FlightAware
12:22AM 28.4690 76.9810 293° West 219 252 8,800 -1,080 Descending FlightAware
12:22AM 28.4820 76.9550 300° West 207 238 8,400 -1,320 Descending FlightAware
12:23AM 28.4970 76.9280 302° West 205 236 7,600 -1,200 Descending FlightAware
12:23AM 28.5110 76.9010 301° West 191 220 7,200 -660 Descending FlightAware
12:24AM 28.5220 76.8810 302° West 179 206 7,000 -600 Descending FlightAware
12:24AM 28.5340 76.8580 301° West 164 189 6,700 -840 Descending FlightAware
12:24AM 28.5460 76.8530 340° North 166 191 6,400 -1,380 Descending FlightAware
12:25AM 28.5640 76.8480 346° North 178 205 5,800 -1,320 Descending FlightAware
12:25AM 28.5900 76.8430 350° North 182 209 5,200 -1,200 Descending FlightAware
12:26AM 28.6070 76.8560 34° Northeast 192 221 4,700 -1,020 Descending FlightAware
12:26AM 28.6120 76.8860 79° East 198 228 4,300 -960 Descending FlightAware
12:26AM 28.6090 76.9010 103° East 200 230 4,000 -1,080 Descending FlightAware
12:27AM 28.6040 76.9270 102° East 199 229 3,600 -1,020 Descending FlightAware
12:27AM 28.5970 76.9570 105° East 189 217 3,100 -1,020 Descending FlightAware
12:28AM 28.5910 76.9840 104° East 174 200 2,600 -780 Descending FlightAware
12:28AM 28.5860 77.0040 106° East 147 169 2,400 -660 Descending FlightAware
12:29AM 28.5810 77.0260 105° East 134 154 2,000 -780 Descending FlightAware
12:29AM 28.5790 77.0320 111° Southeast 134 154 1,900 -600 Descending FlightAware
12:29AM 28.5770 77.0450 100° East 133 153 1,700 -600 Descending FlightAware
12:30AM 28.5710 77.0670 107° East 134 154 1,300 -660 Descending FlightAware
12:30AM 28.5670 77.0840 105° East 134 154 1,000 -720 Descending FlightAware
12:40AM 28.5665 77.1031 241° Southwest  Level Estimated